sensor_id;sensor_type;location;lat;lon;timestamp;temperature;humidity
15630;DHT22;7914;50.842;0.166;2024-02-21T00:02:04;9.40;100.00
15630;DHT22;7914;50.842;0.166;2024-02-21T00:04:30;9.40;100.00
15630;DHT22;7914;50.842;0.166;2024-02-21T00:06:56;9.40;100.00
15630;DHT22;7914;50.842;0.166;2024-02-21T00:09:21;9.40;100.00
15630;DHT22;7914;50.842;0.166;2024-02-21T00:11:47;9.40;100.00
15630;DHT22;7914;50.842;0.166;2024-02-21T00:14:13;9.30;100.00
15630;DHT22;7914;50.842;0.166;2024-02-21T00:16:39;9.30;100.00
15630;DHT22;7914;50.842;0.166;2024-02-21T00:19:04;9.30;100.00
15630;DHT22;7914;50.842;0.166;2024-02-21T00:21:30;9.30;100.00
15630;DHT22;7914;50.842;0.166;2024-02-21T00:23:56;9.30;100.00
15630;DHT22;7914;50.842;0.166;2024-02-21T00:26:22;9.30;100.00
15630;DHT22;7914;50.842;0.166;2024-02-21T00:28:48;9.30;100.00
15630;DHT22;7914;50.842;0.166;2024-02-21T00:31:26;9.40;100.00
15630;DHT22;7914;50.842;0.166;2024-02-21T00:33:52;9.40;100.00
15630;DHT22;7914;50.842;0.166;2024-02-21T00:36:18;9.40;100.00
15630;DHT22;7914;50.842;0.166;2024-02-21T00:38:43;9.40;100.00
15630;DHT22;7914;50.842;0.166;2024-02-21T00:41:10;9.40;100.00
15630;DHT22;7914;50.842;0.166;2024-02-21T00:43:35;9.40;100.00
15630;DHT22;7914;50.842;0.166;2024-02-21T00:46:01;9.40;100.00
15630;DHT22;7914;50.842;0.166;2024-02-21T00:48:27;9.40;100.00
15630;DHT22;7914;50.842;0.166;2024-02-21T00:50:52;9.40;100.00
15630;DHT22;7914;50.842;0.166;2024-02-21T00:53:19;9.40;100.00
15630;DHT22;7914;50.842;0.166;2024-02-21T00:55:45;9.40;100.00
15630;DHT22;7914;50.842;0.166;2024-02-21T00:58:11;9.40;100.00
15630;DHT22;7914;50.842;0.166;2024-02-21T01:00:37;9.40;100.00
15630;DHT22;7914;50.842;0.166;2024-02-21T01:03:03;9.40;100.00
15630;DHT22;7914;50.842;0.166;2024-02-21T01:05:29;9.40;100.00
15630;DHT22;7914;50.842;0.166;2024-02-21T01:07:55;9.40;100.00
15630;DHT22;7914;50.842;0.166;2024-02-21T01:10:20;9.40;100.00
15630;DHT22;7914;50.842;0.166;2024-02-21T01:12:46;9.40;100.00
15630;DHT22;7914;50.842;0.166;2024-02-21T01:15:12;9.40;100.00
15630;DHT22;7914;50.842;0.166;2024-02-21T01:17:38;9.40;100.00
15630;DHT22;7914;50.842;0.166;2024-02-21T01:20:06;9.40;100.00
15630;DHT22;7914;50.842;0.166;2024-02-21T01:22:32;9.30;100.00
15630;DHT22;7914;50.842;0.166;2024-02-21T01:24:58;9.30;100.00
15630;DHT22;7914;50.842;0.166;2024-02-21T01:27:24;9.30;100.00
15630;DHT22;7914;50.842;0.166;2024-02-21T01:29:49;9.30;100.00
15630;DHT22;7914;50.842;0.166;2024-02-21T01:32:16;9.30;100.00
15630;DHT22;7914;50.842;0.166;2024-02-21T01:34:42;9.20;100.00
15630;DHT22;7914;50.842;0.166;2024-02-21T01:37:07;9.30;100.00
15630;DHT22;7914;50.842;0.166;2024-02-21T01:39:34;9.30;100.00
15630;DHT22;7914;50.842;0.166;2024-02-21T01:41:59;9.30;100.00
15630;DHT22;7914;50.842;0.166;2024-02-21T01:44:25;9.30;100.00
15630;DHT22;7914;50.842;0.166;2024-02-21T01:46:52;9.30;100.00
15630;DHT22;7914;50.842;0.166;2024-02-21T01:49:19;9.30;100.00
15630;DHT22;7914;50.842;0.166;2024-02-21T01:51:45;9.20;100.00
15630;DHT22;7914;50.842;0.166;2024-02-21T01:54:13;9.30;100.00
15630;DHT22;7914;50.842;0.166;2024-02-21T01:56:39;9.30;100.00
15630;DHT22;7914;50.842;0.166;2024-02-21T01:59:05;9.30;100.00
15630;DHT22;7914;50.842;0.166;2024-02-21T02:01:31;9.30;100.00
15630;DHT22;7914;50.842;0.166;2024-02-21T02:03:57;9.30;100.00
15630;DHT22;7914;50.842;0.166;2024-02-21T02:06:24;9.20;100.00
15630;DHT22;7914;50.842;0.166;2024-02-21T02:08:50;9.30;100.00
15630;DHT22;7914;50.842;0.166;2024-02-21T02:11:17;9.30;100.00
15630;DHT22;7914;50.842;0.166;2024-02-21T02:13:42;9.30;100.00
15630;DHT22;7914;50.842;0.166;2024-02-21T02:16:08;9.30;100.00
15630;DHT22;7914;50.842;0.166;2024-02-21T02:18:34;9.30;100.00
15630;DHT22;7914;50.842;0.166;2024-02-21T02:21:00;9.30;100.00
15630;DHT22;7914;50.842;0.166;2024-02-21T02:23:32;9.20;100.00
15630;DHT22;7914;50.842;0.166;2024-02-21T02:25:58;9.20;100.00
15630;DHT22;7914;50.842;0.166;2024-02-21T02:28:24;9.20;100.00
15630;DHT22;7914;50.842;0.166;2024-02-21T02:30:50;9.20;100.00
15630;DHT22;7914;50.842;0.166;2024-02-21T02:33:16;9.20;100.00
15630;DHT22;7914;50.842;0.166;2024-02-21T02:35:52;9.10;100.00
15630;DHT22;7914;50.842;0.166;2024-02-21T02:38:18;9.10;100.00
15630;DHT22;7914;50.842;0.166;2024-02-21T02:40:44;9.10;100.00
15630;DHT22;7914;50.842;0.166;2024-02-21T02:43:09;9.20;100.00
15630;DHT22;7914;50.842;0.166;2024-02-21T02:45:35;9.20;100.00
15630;DHT22;7914;50.842;0.166;2024-02-21T02:48:01;9.30;100.00
15630;DHT22;7914;50.842;0.166;2024-02-21T02:50:27;9.30;100.00
15630;DHT22;7914;50.842;0.166;2024-02-21T02:52:54;9.30;100.00
15630;DHT22;7914;50.842;0.166;2024-02-21T02:55:20;9.30;100.00
15630;DHT22;7914;50.842;0.166;2024-02-21T02:57:46;9.30;100.00
15630;DHT22;7914;50.842;0.166;2024-02-21T03:00:12;9.30;100.00
15630;DHT22;7914;50.842;0.166;2024-02-21T03:02:40;9.30;100.00
15630;DHT22;7914;50.842;0.166;2024-02-21T03:05:19;9.30;100.00
15630;DHT22;7914;50.842;0.166;2024-02-21T03:07:45;9.30;100.00
15630;DHT22;7914;50.842;0.166;2024-02-21T03:10:12;9.30;100.00
15630;DHT22;7914;50.842;0.166;2024-02-21T03:12:38;9.30;100.00
15630;DHT22;7914;50.842;0.166;2024-02-21T03:15:07;9.30;100.00
15630;DHT22;7914;50.842;0.166;2024-02-21T03:17:33;9.30;100.00
15630;DHT22;7914;50.842;0.166;2024-02-21T03:20:02;9.30;100.00
15630;DHT22;7914;50.842;0.166;2024-02-21T03:22:33;9.40;100.00
15630;DHT22;7914;50.842;0.166;2024-02-21T03:24:59;9.30;100.00
15630;DHT22;7914;50.842;0.166;2024-02-21T03:27:25;9.30;100.00
15630;DHT22;7914;50.842;0.166;2024-02-21T03:29:51;9.30;100.00
15630;DHT22;7914;50.842;0.166;2024-02-21T03:32:17;9.30;100.00
15630;DHT22;7914;50.842;0.166;2024-02-21T03:34:42;9.30;100.00
15630;DHT22;7914;50.842;0.166;2024-02-21T03:37:08;9.30;100.00
15630;DHT22;7914;50.842;0.166;2024-02-21T03:39:34;9.30;100.00
15630;DHT22;7914;50.842;0.166;2024-02-21T03:41:59;9.30;100.00
15630;DHT22;7914;50.842;0.166;2024-02-21T03:44:31;9.30;100.00
15630;DHT22;7914;50.842;0.166;2024-02-21T03:46:59;9.30;100.00
15630;DHT22;7914;50.842;0.166;2024-02-21T03:49:25;9.30;100.00
15630;DHT22;7914;50.842;0.166;2024-02-21T03:51:51;9.30;100.00
15630;DHT22;7914;50.842;0.166;2024-02-21T03:54:18;9.20;100.00
15630;DHT22;7914;50.842;0.166;2024-02-21T03:56:44;9.30;100.00
15630;DHT22;7914;50.842;0.166;2024-02-21T03:59:09;9.30;100.00
15630;DHT22;7914;50.842;0.166;2024-02-21T04:01:35;9.20;100.00
15630;DHT22;7914;50.842;0.166;2024-02-21T04:04:02;9.20;100.00
15630;DHT22;7914;50.842;0.166;2024-02-21T04:06:28;9.30;100.00
15630;DHT22;7914;50.842;0.166;2024-02-21T04:08:54;9.30;100.00
15630;DHT22;7914;50.842;0.166;2024-02-21T04:11:19;9.30;100.00
15630;DHT22;7914;50.842;0.166;2024-02-21T04:13:45;9.20;100.00
15630;DHT22;7914;50.842;0.166;2024-02-21T04:16:14;9.30;100.00
15630;DHT22;7914;50.842;0.166;2024-02-21T04:18:41;9.20;100.00
15630;DHT22;7914;50.842;0.166;2024-02-21T04:21:07;9.20;100.00
15630;DHT22;7914;50.842;0.166;2024-02-21T04:23:32;9.20;100.00
15630;DHT22;7914;50.842;0.166;2024-02-21T04:25:58;9.20;100.00
15630;DHT22;7914;50.842;0.166;2024-02-21T04:28:27;9.20;100.00
15630;DHT22;7914;50.842;0.166;2024-02-21T04:30:52;9.10;100.00
15630;DHT22;7914;50.842;0.166;2024-02-21T04:33:18;9.10;100.00
15630;DHT22;7914;50.842;0.166;2024-02-21T04:35:44;9.10;100.00
15630;DHT22;7914;50.842;0.166;2024-02-21T04:38:10;9.20;100.00
15630;DHT22;7914;50.842;0.166;2024-02-21T04:40:35;9.20;100.00
15630;DHT22;7914;50.842;0.166;2024-02-21T04:43:33;9.20;100.00
15630;DHT22;7914;50.842;0.166;2024-02-21T04:45:59;9.10;100.00
15630;DHT22;7914;50.842;0.166;2024-02-21T04:48:25;9.10;100.00
15630;DHT22;7914;50.842;0.166;2024-02-21T04:50:51;9.10;100.00
15630;DHT22;7914;50.842;0.166;2024-02-21T04:53:17;9.10;100.00
15630;DHT22;7914;50.842;0.166;2024-02-21T04:55:43;9.00;100.00
15630;DHT22;7914;50.842;0.166;2024-02-21T04:58:08;9.00;100.00
15630;DHT22;7914;50.842;0.166;2024-02-21T05:00:34;9.10;100.00
15630;DHT22;7914;50.842;0.166;2024-02-21T05:03:00;9.10;100.00
15630;DHT22;7914;50.842;0.166;2024-02-21T05:05:26;9.10;100.00
15630;DHT22;7914;50.842;0.166;2024-02-21T05:07:51;9.10;100.00
15630;DHT22;7914;50.842;0.166;2024-02-21T05:10:17;9.10;100.00
15630;DHT22;7914;50.842;0.166;2024-02-21T05:12:45;9.10;100.00
15630;DHT22;7914;50.842;0.166;2024-02-21T05:15:10;9.10;100.00
15630;DHT22;7914;50.842;0.166;2024-02-21T05:17:36;9.10;100.00
15630;DHT22;7914;50.842;0.166;2024-02-21T05:20:02;9.10;100.00
15630;DHT22;7914;50.842;0.166;2024-02-21T05:22:29;9.00;100.00
15630;DHT22;7914;50.842;0.166;2024-02-21T05:24:54;9.00;100.00
15630;DHT22;7914;50.842;0.166;2024-02-21T05:27:20;9.00;100.00
15630;DHT22;7914;50.842;0.166;2024-02-21T05:29:46;9.00;100.00
15630;DHT22;7914;50.842;0.166;2024-02-21T05:32:13;9.00;100.00
15630;DHT22;7914;50.842;0.166;2024-02-21T05:34:39;9.00;100.00
15630;DHT22;7914;50.842;0.166;2024-02-21T05:37:05;9.00;100.00
15630;DHT22;7914;50.842;0.166;2024-02-21T05:39:31;9.00;100.00
15630;DHT22;7914;50.842;0.166;2024-02-21T05:41:56;8.90;100.00
15630;DHT22;7914;50.842;0.166;2024-02-21T05:44:22;9.00;100.00
15630;DHT22;7914;50.842;0.166;2024-02-21T05:46:48;9.00;100.00
15630;DHT22;7914;50.842;0.166;2024-02-21T05:49:14;9.00;100.00
15630;DHT22;7914;50.842;0.166;2024-02-21T05:51:39;9.00;100.00
15630;DHT22;7914;50.842;0.166;2024-02-21T05:54:05;9.00;100.00
15630;DHT22;7914;50.842;0.166;2024-02-21T05:56:32;9.00;100.00
15630;DHT22;7914;50.842;0.166;2024-02-21T05:58:58;9.00;100.00
15630;DHT22;7914;50.842;0.166;2024-02-21T06:01:24;9.10;100.00
15630;DHT22;7914;50.842;0.166;2024-02-21T06:03:50;9.00;100.00
15630;DHT22;7914;50.842;0.166;2024-02-21T06:06:15;9.10;100.00
15630;DHT22;7914;50.842;0.166;2024-02-21T06:08:41;9.10;100.00
15630;DHT22;7914;50.842;0.166;2024-02-21T06:11:07;9.00;100.00
15630;DHT22;7914;50.842;0.166;2024-02-21T06:13:33;9.00;100.00
15630;DHT22;7914;50.842;0.166;2024-02-21T06:15:58;9.00;100.00
15630;DHT22;7914;50.842;0.166;2024-02-21T06:18:24;9.00;100.00
15630;DHT22;7914;50.842;0.166;2024-02-21T06:20:50;9.00;100.00
15630;DHT22;7914;50.842;0.166;2024-02-21T06:23:16;9.00;100.00
15630;DHT22;7914;50.842;0.166;2024-02-21T06:25:44;9.00;100.00
15630;DHT22;7914;50.842;0.166;2024-02-21T06:28:10;9.00;100.00
15630;DHT22;7914;50.842;0.166;2024-02-21T06:30:36;9.00;100.00
15630;DHT22;7914;50.842;0.166;2024-02-21T06:33:02;8.90;100.00
15630;DHT22;7914;50.842;0.166;2024-02-21T06:35:28;9.00;100.00
15630;DHT22;7914;50.842;0.166;2024-02-21T06:37:54;8.90;100.00
15630;DHT22;7914;50.842;0.166;2024-02-21T06:40:21;9.00;100.00
15630;DHT22;7914;50.842;0.166;2024-02-21T06:42:47;8.90;100.00
15630;DHT22;7914;50.842;0.166;2024-02-21T06:45:13;8.90;100.00
15630;DHT22;7914;50.842;0.166;2024-02-21T06:47:39;8.90;100.00
15630;DHT22;7914;50.842;0.166;2024-02-21T06:50:05;9.00;100.00
15630;DHT22;7914;50.842;0.166;2024-02-21T06:52:31;8.90;100.00
15630;DHT22;7914;50.842;0.166;2024-02-21T06:54:57;9.00;100.00
15630;DHT22;7914;50.842;0.166;2024-02-21T06:57:23;9.00;100.00
15630;DHT22;7914;50.842;0.166;2024-02-21T06:59:49;8.90;100.00
15630;DHT22;7914;50.842;0.166;2024-02-21T07:02:14;9.00;100.00
15630;DHT22;7914;50.842;0.166;2024-02-21T07:04:49;9.00;100.00
15630;DHT22;7914;50.842;0.166;2024-02-21T07:07:15;9.00;100.00
15630;DHT22;7914;50.842;0.166;2024-02-21T07:09:41;9.00;100.00
15630;DHT22;7914;50.842;0.166;2024-02-21T07:12:07;9.00;100.00
15630;DHT22;7914;50.842;0.166;2024-02-21T07:14:33;9.00;100.00
15630;DHT22;7914;50.842;0.166;2024-02-21T07:16:59;9.10;100.00
15630;DHT22;7914;50.842;0.166;2024-02-21T07:19:24;9.10;100.00
15630;DHT22;7914;50.842;0.166;2024-02-21T07:21:50;9.10;100.00
15630;DHT22;7914;50.842;0.166;2024-02-21T07:24:16;9.10;100.00
15630;DHT22;7914;50.842;0.166;2024-02-21T07:26:42;9.10;100.00
15630;DHT22;7914;50.842;0.166;2024-02-21T07:29:11;9.10;100.00
15630;DHT22;7914;50.842;0.166;2024-02-21T07:31:41;9.10;100.00
15630;DHT22;7914;50.842;0.166;2024-02-21T07:34:07;9.20;100.00
15630;DHT22;7914;50.842;0.166;2024-02-21T07:36:33;9.20;100.00
15630;DHT22;7914;50.842;0.166;2024-02-21T07:38:58;9.20;100.00
15630;DHT22;7914;50.842;0.166;2024-02-21T07:41:25;9.20;100.00
15630;DHT22;7914;50.842;0.166;2024-02-21T07:43:52;9.20;100.00
15630;DHT22;7914;50.842;0.166;2024-02-21T07:46:49;9.20;100.00
15630;DHT22;7914;50.842;0.166;2024-02-21T07:49:14;9.20;100.00
15630;DHT22;7914;50.842;0.166;2024-02-21T07:51:40;9.30;100.00
15630;DHT22;7914;50.842;0.166;2024-02-21T07:54:07;9.30;100.00
15630;DHT22;7914;50.842;0.166;2024-02-21T07:56:33;9.30;100.00
15630;DHT22;7914;50.842;0.166;2024-02-21T07:59:05;9.30;100.00
15630;DHT22;7914;50.842;0.166;2024-02-21T08:01:31;9.30;100.00
15630;DHT22;7914;50.842;0.166;2024-02-21T08:03:57;9.40;100.00
15630;DHT22;7914;50.842;0.166;2024-02-21T08:06:24;9.40;100.00
15630;DHT22;7914;50.842;0.166;2024-02-21T08:08:50;9.40;100.00
15630;DHT22;7914;50.842;0.166;2024-02-21T08:11:15;9.40;100.00
15630;DHT22;7914;50.842;0.166;2024-02-21T08:13:41;9.40;100.00
15630;DHT22;7914;50.842;0.166;2024-02-21T08:16:07;9.50;100.00
15630;DHT22;7914;50.842;0.166;2024-02-21T08:18:47;9.50;100.00
15630;DHT22;7914;50.842;0.166;2024-02-21T08:21:13;9.50;100.00
15630;DHT22;7914;50.842;0.166;2024-02-21T08:23:40;9.60;100.00
15630;DHT22;7914;50.842;0.166;2024-02-21T08:26:06;9.60;100.00
15630;DHT22;7914;50.842;0.166;2024-02-21T08:28:32;9.50;100.00
15630;DHT22;7914;50.842;0.166;2024-02-21T08:30:57;9.60;100.00
15630;DHT22;7914;50.842;0.166;2024-02-21T08:33:23;9.60;100.00
15630;DHT22;7914;50.842;0.166;2024-02-21T08:35:53;9.60;100.00
15630;DHT22;7914;50.842;0.166;2024-02-21T08:38:19;9.60;100.00
15630;DHT22;7914;50.842;0.166;2024-02-21T08:40:44;9.60;100.00
15630;DHT22;7914;50.842;0.166;2024-02-21T08:43:10;9.60;100.00
15630;DHT22;7914;50.842;0.166;2024-02-21T08:45:36;9.60;100.00
15630;DHT22;7914;50.842;0.166;2024-02-21T08:48:03;9.60;100.00
15630;DHT22;7914;50.842;0.166;2024-02-21T08:50:28;9.70;100.00
15630;DHT22;7914;50.842;0.166;2024-02-21T08:52:54;9.70;100.00
15630;DHT22;7914;50.842;0.166;2024-02-21T08:55:20;9.80;100.00
15630;DHT22;7914;50.842;0.166;2024-02-21T08:57:46;9.80;100.00
15630;DHT22;7914;50.842;0.166;2024-02-21T09:00:12;9.80;100.00
15630;DHT22;7914;50.842;0.166;2024-02-21T09:02:40;9.90;100.00
15630;DHT22;7914;50.842;0.166;2024-02-21T09:05:08;9.80;100.00
15630;DHT22;7914;50.842;0.166;2024-02-21T09:07:34;9.80;100.00
15630;DHT22;7914;50.842;0.166;2024-02-21T09:10:00;9.90;100.00
15630;DHT22;7914;50.842;0.166;2024-02-21T09:12:26;9.90;100.00
15630;DHT22;7914;50.842;0.166;2024-02-21T09:14:52;10.00;100.00
15630;DHT22;7914;50.842;0.166;2024-02-21T09:17:18;10.00;100.00
15630;DHT22;7914;50.842;0.166;2024-02-21T09:19:48;10.00;100.00
15630;DHT22;7914;50.842;0.166;2024-02-21T09:22:14;10.00;100.00
15630;DHT22;7914;50.842;0.166;2024-02-21T09:24:40;10.10;100.00
15630;DHT22;7914;50.842;0.166;2024-02-21T09:27:06;10.10;100.00
15630;DHT22;7914;50.842;0.166;2024-02-21T09:29:31;10.00;100.00
15630;DHT22;7914;50.842;0.166;2024-02-21T09:31:59;10.10;100.00
15630;DHT22;7914;50.842;0.166;2024-02-21T09:34:25;10.00;100.00
15630;DHT22;7914;50.842;0.166;2024-02-21T09:36:52;10.00;100.00
15630;DHT22;7914;50.842;0.166;2024-02-21T09:39:17;10.10;100.00
15630;DHT22;7914;50.842;0.166;2024-02-21T09:41:50;10.00;100.00
15630;DHT22;7914;50.842;0.166;2024-02-21T09:44:21;9.90;100.00
15630;DHT22;7914;50.842;0.166;2024-02-21T09:46:56;9.90;100.00
15630;DHT22;7914;50.842;0.166;2024-02-21T09:49:27;9.90;100.00
15630;DHT22;7914;50.842;0.166;2024-02-21T09:51:55;9.90;100.00
15630;DHT22;7914;50.842;0.166;2024-02-21T09:54:22;9.90;100.00
15630;DHT22;7914;50.842;0.166;2024-02-21T09:56:48;9.90;100.00
15630;DHT22;7914;50.842;0.166;2024-02-21T09:59:18;9.90;100.00
15630;DHT22;7914;50.842;0.166;2024-02-21T10:01:44;9.80;100.00
15630;DHT22;7914;50.842;0.166;2024-02-21T10:04:10;9.80;100.00
15630;DHT22;7914;50.842;0.166;2024-02-21T10:06:36;9.80;100.00
15630;DHT22;7914;50.842;0.166;2024-02-21T10:09:03;9.80;100.00
15630;DHT22;7914;50.842;0.166;2024-02-21T10:11:29;9.70;100.00
15630;DHT22;7914;50.842;0.166;2024-02-21T10:14:06;9.70;100.00
15630;DHT22;7914;50.842;0.166;2024-02-21T10:16:35;9.70;100.00
15630;DHT22;7914;50.842;0.166;2024-02-21T10:19:02;9.60;100.00
15630;DHT22;7914;50.842;0.166;2024-02-21T10:21:29;9.60;100.00
15630;DHT22;7914;50.842;0.166;2024-02-21T10:23:55;9.60;100.00
15630;DHT22;7914;50.842;0.166;2024-02-21T10:26:21;9.60;100.00
15630;DHT22;7914;50.842;0.166;2024-02-21T10:28:47;9.60;100.00
15630;DHT22;7914;50.842;0.166;2024-02-21T10:31:29;9.50;100.00
15630;DHT22;7914;50.842;0.166;2024-02-21T10:34:01;9.60;100.00
15630;DHT22;7914;50.842;0.166;2024-02-21T10:36:30;9.60;100.00
15630;DHT22;7914;50.842;0.166;2024-02-21T10:38:57;9.50;100.00
15630;DHT22;7914;50.842;0.166;2024-02-21T10:41:24;9.60;100.00
15630;DHT22;7914;50.842;0.166;2024-02-21T10:43:51;9.50;100.00
15630;DHT22;7914;50.842;0.166;2024-02-21T10:46:22;9.50;100.00
15630;DHT22;7914;50.842;0.166;2024-02-21T10:48:52;9.50;100.00
15630;DHT22;7914;50.842;0.166;2024-02-21T10:51:20;9.50;100.00
15630;DHT22;7914;50.842;0.166;2024-02-21T10:56:39;9.50;100.00
15630;DHT22;7914;50.842;0.166;2024-02-21T10:59:07;9.50;100.00
15630;DHT22;7914;50.842;0.166;2024-02-21T11:01:33;9.50;100.00
15630;DHT22;7914;50.842;0.166;2024-02-21T11:04:05;9.50;100.00
15630;DHT22;7914;50.842;0.166;2024-02-21T11:06:32;9.50;100.00
15630;DHT22;7914;50.842;0.166;2024-02-21T11:09:00;9.60;100.00
15630;DHT22;7914;50.842;0.166;2024-02-21T11:11:27;9.60;100.00
15630;DHT22;7914;50.842;0.166;2024-02-21T11:13:52;9.60;100.00
15630;DHT22;7914;50.842;0.166;2024-02-21T11:16:23;9.60;100.00
15630;DHT22;7914;50.842;0.166;2024-02-21T11:18:48;9.60;100.00
15630;DHT22;7914;50.842;0.166;2024-02-21T11:21:15;9.60;100.00
15630;DHT22;7914;50.842;0.166;2024-02-21T11:23:41;9.60;100.00
15630;DHT22;7914;50.842;0.166;2024-02-21T11:26:07;9.60;100.00
15630;DHT22;7914;50.842;0.166;2024-02-21T11:28:33;9.60;100.00
15630;DHT22;7914;50.842;0.166;2024-02-21T11:31:13;9.70;100.00
15630;DHT22;7914;50.842;0.166;2024-02-21T11:33:42;9.70;100.00
15630;DHT22;7914;50.842;0.166;2024-02-21T11:36:09;9.70;100.00
15630;DHT22;7914;50.842;0.166;2024-02-21T11:38:35;9.70;100.00
15630;DHT22;7914;50.842;0.166;2024-02-21T11:41:02;9.70;100.00
15630;DHT22;7914;50.842;0.166;2024-02-21T11:43:28;9.70;100.00
15630;DHT22;7914;50.842;0.166;2024-02-21T11:46:03;9.70;100.00
15630;DHT22;7914;50.842;0.166;2024-02-21T11:48:31;9.70;100.00
15630;DHT22;7914;50.842;0.166;2024-02-21T11:50:57;9.70;100.00
15630;DHT22;7914;50.842;0.166;2024-02-21T11:53:23;9.60;100.00
15630;DHT22;7914;50.842;0.166;2024-02-21T11:55:49;9.70;100.00
15630;DHT22;7914;50.842;0.166;2024-02-21T11:58:16;9.70;100.00
15630;DHT22;7914;50.842;0.166;2024-02-21T12:00:42;9.70;100.00
15630;DHT22;7914;50.842;0.166;2024-02-21T12:03:07;9.70;100.00
15630;DHT22;7914;50.842;0.166;2024-02-21T12:05:34;9.80;100.00
15630;DHT22;7914;50.842;0.166;2024-02-21T12:08:00;9.70;100.00
15630;DHT22;7914;50.842;0.166;2024-02-21T12:10:26;9.70;100.00
15630;DHT22;7914;50.842;0.166;2024-02-21T12:13:15;9.70;100.00
15630;DHT22;7914;50.842;0.166;2024-02-21T12:15:41;9.80;100.00
15630;DHT22;7914;50.842;0.166;2024-02-21T12:18:07;9.70;100.00
15630;DHT22;7914;50.842;0.166;2024-02-21T12:20:32;9.80;100.00
15630;DHT22;7914;50.842;0.166;2024-02-21T12:23:00;9.80;100.00
15630;DHT22;7914;50.842;0.166;2024-02-21T12:25:26;9.80;100.00
15630;DHT22;7914;50.842;0.166;2024-02-21T12:27:53;9.80;100.00
15630;DHT22;7914;50.842;0.166;2024-02-21T12:30:19;9.80;100.00
15630;DHT22;7914;50.842;0.166;2024-02-21T12:32:46;9.80;100.00
15630;DHT22;7914;50.842;0.166;2024-02-21T12:35:12;9.80;100.00
15630;DHT22;7914;50.842;0.166;2024-02-21T12:37:37;9.80;100.00
15630;DHT22;7914;50.842;0.166;2024-02-21T12:40:08;9.80;100.00
15630;DHT22;7914;50.842;0.166;2024-02-21T12:42:34;9.80;100.00
15630;DHT22;7914;50.842;0.166;2024-02-21T12:45:00;9.80;100.00
15630;DHT22;7914;50.842;0.166;2024-02-21T12:47:26;9.80;100.00
15630;DHT22;7914;50.842;0.166;2024-02-21T12:49:55;9.80;100.00
15630;DHT22;7914;50.842;0.166;2024-02-21T12:52:21;9.90;100.00
15630;DHT22;7914;50.842;0.166;2024-02-21T12:54:46;9.90;100.00
15630;DHT22;7914;50.842;0.166;2024-02-21T12:57:12;9.90;100.00
15630;DHT22;7914;50.842;0.166;2024-02-21T12:59:38;9.90;100.00
15630;DHT22;7914;50.842;0.166;2024-02-21T13:02:04;9.90;100.00
15630;DHT22;7914;50.842;0.166;2024-02-21T13:04:30;9.90;100.00
15630;DHT22;7914;50.842;0.166;2024-02-21T13:06:55;10.00;100.00
15630;DHT22;7914;50.842;0.166;2024-02-21T13:09:21;10.00;100.00
15630;DHT22;7914;50.842;0.166;2024-02-21T13:11:47;9.90;100.00
15630;DHT22;7914;50.842;0.166;2024-02-21T13:14:13;9.90;100.00
15630;DHT22;7914;50.842;0.166;2024-02-21T13:16:39;9.90;100.00
15630;DHT22;7914;50.842;0.166;2024-02-21T13:19:08;10.00;100.00
15630;DHT22;7914;50.842;0.166;2024-02-21T13:21:35;10.00;100.00
15630;DHT22;7914;50.842;0.166;2024-02-21T13:24:01;10.00;100.00
15630;DHT22;7914;50.842;0.166;2024-02-21T13:26:27;10.00;100.00
15630;DHT22;7914;50.842;0.166;2024-02-21T13:28:53;10.10;100.00
15630;DHT22;7914;50.842;0.166;2024-02-21T13:31:44;10.10;100.00
15630;DHT22;7914;50.842;0.166;2024-02-21T13:34:09;10.10;100.00
15630;DHT22;7914;50.842;0.166;2024-02-21T13:36:35;10.20;100.00
15630;DHT22;7914;50.842;0.166;2024-02-21T13:39:01;10.20;100.00
15630;DHT22;7914;50.842;0.166;2024-02-21T13:41:26;10.20;100.00
15630;DHT22;7914;50.842;0.166;2024-02-21T13:43:53;10.20;100.00
15630;DHT22;7914;50.842;0.166;2024-02-21T13:46:30;10.30;100.00
15630;DHT22;7914;50.842;0.166;2024-02-21T13:49:04;10.30;100.00
15630;DHT22;7914;50.842;0.166;2024-02-21T13:51:31;10.30;100.00
15630;DHT22;7914;50.842;0.166;2024-02-21T13:53:57;10.30;100.00
15630;DHT22;7914;50.842;0.166;2024-02-21T13:56:25;10.30;100.00
15630;DHT22;7914;50.842;0.166;2024-02-21T13:58:50;10.30;100.00
15630;DHT22;7914;50.842;0.166;2024-02-21T14:01:17;10.30;100.00
15630;DHT22;7914;50.842;0.166;2024-02-21T14:03:42;10.30;100.00
15630;DHT22;7914;50.842;0.166;2024-02-21T14:06:08;10.30;100.00
15630;DHT22;7914;50.842;0.166;2024-02-21T14:08:34;10.30;100.00
15630;DHT22;7914;50.842;0.166;2024-02-21T14:11:01;10.30;100.00
15630;DHT22;7914;50.842;0.166;2024-02-21T14:13:26;10.30;100.00
15630;DHT22;7914;50.842;0.166;2024-02-21T14:15:53;10.30;100.00
15630;DHT22;7914;50.842;0.166;2024-02-21T14:18:19;10.30;100.00
15630;DHT22;7914;50.842;0.166;2024-02-21T14:20:45;10.30;100.00
15630;DHT22;7914;50.842;0.166;2024-02-21T14:23:12;10.20;100.00
15630;DHT22;7914;50.842;0.166;2024-02-21T14:25:39;10.20;100.00
15630;DHT22;7914;50.842;0.166;2024-02-21T14:28:05;10.20;100.00
15630;DHT22;7914;50.842;0.166;2024-02-21T14:30:31;10.20;100.00
15630;DHT22;7914;50.842;0.166;2024-02-21T14:32:57;10.20;100.00
15630;DHT22;7914;50.842;0.166;2024-02-21T14:35:22;10.10;100.00
15630;DHT22;7914;50.842;0.166;2024-02-21T14:37:48;10.20;100.00
15630;DHT22;7914;50.842;0.166;2024-02-21T14:40:18;10.10;100.00
15630;DHT22;7914;50.842;0.166;2024-02-21T14:42:45;10.10;100.00
15630;DHT22;7914;50.842;0.166;2024-02-21T14:45:11;10.10;100.00
15630;DHT22;7914;50.842;0.166;2024-02-21T14:47:37;10.20;100.00
15630;DHT22;7914;50.842;0.166;2024-02-21T14:50:03;10.10;100.00
15630;DHT22;7914;50.842;0.166;2024-02-21T14:52:30;10.20;100.00
15630;DHT22;7914;50.842;0.166;2024-02-21T14:54:56;10.20;100.00
15630;DHT22;7914;50.842;0.166;2024-02-21T14:57:22;10.20;100.00
15630;DHT22;7914;50.842;0.166;2024-02-21T14:59:48;10.20;100.00
15630;DHT22;7914;50.842;0.166;2024-02-21T15:02:15;10.20;100.00
15630;DHT22;7914;50.842;0.166;2024-02-21T15:04:41;10.10;100.00
15630;DHT22;7914;50.842;0.166;2024-02-21T15:07:07;10.10;100.00
15630;DHT22;7914;50.842;0.166;2024-02-21T15:09:33;10.10;100.00
15630;DHT22;7914;50.842;0.166;2024-02-21T15:11:58;10.10;100.00
15630;DHT22;7914;50.842;0.166;2024-02-21T15:14:24;10.10;100.00
15630;DHT22;7914;50.842;0.166;2024-02-21T15:16:50;10.10;100.00
15630;DHT22;7914;50.842;0.166;2024-02-21T15:19:15;10.10;100.00
15630;DHT22;7914;50.842;0.166;2024-02-21T15:21:41;10.00;100.00
15630;DHT22;7914;50.842;0.166;2024-02-21T15:24:07;10.10;100.00
15630;DHT22;7914;50.842;0.166;2024-02-21T15:26:33;10.00;100.00
15630;DHT22;7914;50.842;0.166;2024-02-21T15:28:58;10.00;100.00
15630;DHT22;7914;50.842;0.166;2024-02-21T15:31:24;10.00;100.00
15630;DHT22;7914;50.842;0.166;2024-02-21T15:33:52;10.00;100.00
15630;DHT22;7914;50.842;0.166;2024-02-21T15:36:18;10.00;100.00
15630;DHT22;7914;50.842;0.166;2024-02-21T15:38:45;10.00;100.00
15630;DHT22;7914;50.842;0.166;2024-02-21T15:41:12;10.00;100.00
15630;DHT22;7914;50.842;0.166;2024-02-21T15:43:59;9.90;100.00